createdAt,value
2022-12-31T00:01:06.718Z,12.54
2022-12-31T00:03:35.171Z,12.56
2022-12-31T00:06:02.958Z,12.55
2022-12-31T00:08:31.778Z,12.59
2022-12-31T00:10:59.363Z,12.64
2022-12-31T00:13:26.955Z,12.60
2022-12-31T00:15:54.543Z,12.63
2022-12-31T00:18:22.067Z,12.65
2022-12-31T00:20:49.635Z,12.67
2022-12-31T00:23:17.219Z,12.71
2022-12-31T00:25:48.362Z,12.77
2022-12-31T00:28:15.947Z,12.76
2022-12-31T00:30:43.753Z,12.72
2022-12-31T00:33:11.349Z,12.70
2022-12-31T00:35:39.095Z,12.73
2022-12-31T00:38:06.984Z,12.73
2022-12-31T00:40:34.552Z,12.77
2022-12-31T00:43:03.767Z,12.78
2022-12-31T00:45:31.677Z,12.74
2022-12-31T00:47:59.285Z,12.75
2022-12-31T00:50:26.887Z,12.75
2022-12-31T00:52:54.445Z,12.85
2022-12-31T00:55:21.953Z,12.85
2022-12-31T00:57:49.837Z,12.94
2022-12-31T01:00:19.310Z,13.00
2022-12-31T01:02:48.070Z,12.98
2022-12-31T01:05:15.864Z,12.96
2022-12-31T01:07:43.406Z,12.99
2022-12-31T01:10:11.716Z,13.05
2022-12-31T01:12:42.222Z,12.99
2022-12-31T01:15:10.457Z,13.00
2022-12-31T01:17:42.464Z,13.06
2022-12-31T01:20:10.510Z,13.03
2022-12-31T01:22:38.580Z,13.12
2022-12-31T01:25:07.373Z,13.13
2022-12-31T01:27:34.963Z,13.20
2022-12-31T01:30:02.645Z,13.19
2022-12-31T01:32:30.330Z,13.21
2022-12-31T01:34:59.272Z,13.25
2022-12-31T01:37:26.863Z,13.20
2022-12-31T01:39:54.451Z,13.17
2022-12-31T01:42:22.048Z,13.21
2022-12-31T01:44:54.172Z,13.21
2022-12-31T01:47:40.717Z,13.22
2022-12-31T01:50:16.229Z,13.21
2022-12-31T01:52:50.104Z,13.23
2022-12-31T01:55:23.576Z,13.24
2022-12-31T01:57:58.068Z,13.31
2022-12-31T02:00:26.656Z,13.32
2022-12-31T02:02:54.471Z,13.42
2022-12-31T02:05:30.391Z,13.49
2022-12-31T02:07:58.814Z,13.47
2022-12-31T02:10:26.632Z,13.49
2022-12-31T02:12:54.435Z,13.55
2022-12-31T02:15:35.080Z,13.57
2022-12-31T02:18:11.637Z,13.68
2022-12-31T02:21:12.172Z,13.62
2022-12-31T02:24:09.970Z,13.55
2022-12-31T02:26:50.648Z,13.54
2022-12-31T02:29:49.152Z,13.48
2022-12-31T02:32:24.460Z,13.54
2022-12-31T02:34:57.867Z,13.56
2022-12-31T02:37:29.003Z,13.63
2022-12-31T02:39:57.435Z,13.70
2022-12-31T02:42:25.255Z,13.68
2022-12-31T02:44:53.154Z,13.72
2022-12-31T02:47:36.892Z,13.75
2022-12-31T02:50:23.225Z,13.78
2022-12-31T02:52:59.268Z,13.82
2022-12-31T02:55:36.609Z,13.83
2022-12-31T02:58:12.759Z,13.90
2022-12-31T03:01:02.797Z,13.89
2022-12-31T03:03:32.773Z,14.05
2022-12-31T03:06:03.671Z,14.15
2022-12-31T03:08:31.430Z,14.16
2022-12-31T03:10:58.973Z,14.09
2022-12-31T03:13:25.634Z,13.97
2022-12-31T03:15:54.963Z,13.96
2022-12-31T03:18:42.985Z,13.95
2022-12-31T03:21:32.333Z,14.00
2022-12-31T03:24:17.815Z,14.03
2022-12-31T03:26:45.333Z,14.02
2022-12-31T03:29:12.930Z,14.04
2022-12-31T03:31:40.501Z,14.02
2022-12-31T03:34:08.301Z,14.00
2022-12-31T03:36:37.275Z,14.06
2022-12-31T03:39:04.886Z,14.03
2022-12-31T03:41:32.534Z,14.02
2022-12-31T03:44:00.065Z,14.05
2022-12-31T03:46:27.753Z,14.12
2022-12-31T03:48:55.532Z,14.16
2022-12-31T03:51:23.099Z,14.27
2022-12-31T03:53:52.015Z,14.26
2022-12-31T03:56:20.063Z,14.25
2022-12-31T03:58:47.660Z,14.28
2022-12-31T04:01:15.363Z,14.27
2022-12-31T04:03:42.969Z,14.29
2022-12-31T04:06:10.505Z,14.32
2022-12-31T04:08:38.057Z,14.26
2022-12-31T04:11:08.169Z,14.30
2022-12-31T04:13:36.159Z,14.34
2022-12-31T04:16:03.747Z,14.36
2022-12-31T04:18:31.421Z,14.29
2022-12-31T04:21:02.598Z,14.29
2022-12-31T04:23:30.177Z,14.18
2022-12-31T04:25:57.782Z,14.15
2022-12-31T04:28:26.909Z,14.23
2022-12-31T04:30:54.892Z,14.28
2022-12-31T04:33:22.421Z,14.26
2022-12-31T04:35:52.420Z,14.24
2022-12-31T04:38:19.943Z,14.36
2022-12-31T04:41:01.624Z,14.40
2022-12-31T04:43:30.544Z,14.41
2022-12-31T04:45:58.174Z,14.45
2022-12-31T04:48:26.448Z,14.37
2022-12-31T04:50:55.155Z,14.33
2022-12-31T04:53:24.458Z,14.39
2022-12-31T04:55:52.620Z,14.49
2022-12-31T04:58:20.480Z,14.51
2022-12-31T05:00:50.338Z,14.52
2022-12-31T05:03:18.379Z,14.52
2022-12-31T05:05:46.025Z,14.61
2022-12-31T05:08:14.751Z,14.65
2022-12-31T05:10:43.685Z,14.64
2022-12-31T05:13:12.265Z,14.71
2022-12-31T05:15:40.795Z,14.66
2022-12-31T05:18:13.083Z,14.60
2022-12-31T05:20:43.654Z,14.68
2022-12-31T05:23:11.193Z,14.60
2022-12-31T05:25:39.001Z,14.58
2022-12-31T05:28:06.545Z,14.71
2022-12-31T05:30:34.183Z,14.73
2022-12-31T05:33:01.993Z,14.76
2022-12-31T05:35:31.222Z,14.79
2022-12-31T05:38:00.743Z,14.80
2022-12-31T05:40:28.650Z,14.81
2022-12-31T05:42:56.280Z,14.87
2022-12-31T05:45:30.122Z,14.89
2022-12-31T05:47:59.204Z,14.95
2022-12-31T05:50:27.213Z,14.94
2022-12-31T05:52:56.149Z,14.92
2022-12-31T05:55:24.589Z,14.92
2022-12-31T05:57:52.493Z,14.85
2022-12-31T06:00:20.408Z,14.85
2022-12-31T06:02:48.073Z,14.86
2022-12-31T06:05:16.999Z,14.88
2022-12-31T06:07:47.658Z,14.80
2022-12-31T06:10:16.614Z,14.82
2022-12-31T06:12:44.208Z,14.84
2022-12-31T06:15:12.319Z,14.88
2022-12-31T06:17:40.007Z,14.88
2022-12-31T06:20:12.751Z,14.93
2022-12-31T06:22:40.967Z,14.93
2022-12-31T06:25:09.685Z,14.96
2022-12-31T06:27:38.613Z,15.02
2022-12-31T06:30:07.405Z,15.07
2022-12-31T06:32:35.328Z,15.07
2022-12-31T06:35:03.133Z,14.98
2022-12-31T06:37:30.760Z,15.00
2022-12-31T06:39:58.367Z,15.07
2022-12-31T06:42:29.183Z,15.13
2022-12-31T06:44:58.144Z,15.24
2022-12-31T06:47:26.162Z,15.24
2022-12-31T06:49:53.932Z,15.21
2022-12-31T06:52:22.087Z,15.24
2022-12-31T06:54:50.910Z,15.24
2022-12-31T06:57:21.609Z,15.24
2022-12-31T06:59:49.812Z,15.22
2022-12-31T07:02:47.391Z,15.26
2022-12-31T07:05:28.122Z,15.26
2022-12-31T07:08:06.792Z,15.19
2022-12-31T07:10:46.089Z,15.17
2022-12-31T07:13:32.110Z,15.20
2022-12-31T07:16:08.021Z,15.21
2022-12-31T07:18:46.955Z,15.25
2022-12-31T07:21:20.021Z,15.28
2022-12-31T07:23:49.327Z,15.28
2022-12-31T07:26:25.081Z,15.22
2022-12-31T07:29:01.988Z,15.30
2022-12-31T07:31:41.441Z,15.37
2022-12-31T07:34:23.285Z,15.39
2022-12-31T07:37:02.543Z,15.44
2022-12-31T07:39:39.995Z,15.40
2022-12-31T07:42:16.483Z,15.37
2022-12-31T07:45:02.203Z,15.42
2022-12-31T07:47:30.663Z,15.42
2022-12-31T07:50:00.313Z,15.42
2022-12-31T07:52:30.053Z,15.43
2022-12-31T07:54:57.643Z,15.39
2022-12-31T07:57:34.058Z,15.38
2022-12-31T08:00:08.378Z,15.41
2022-12-31T08:03:04.968Z,15.40
2022-12-31T08:05:47.363Z,15.46
2022-12-31T08:08:26.855Z,15.48
2022-12-31T08:11:06.139Z,15.47
2022-12-31T08:13:34.145Z,15.58
2022-12-31T08:16:03.823Z,15.56
2022-12-31T08:18:31.977Z,15.45
2022-12-31T08:21:12.382Z,15.50
2022-12-31T08:23:50.880Z,15.43
2022-12-31T08:26:28.230Z,15.54
2022-12-31T08:29:07.746Z,15.55
2022-12-31T08:31:46.075Z,15.51
2022-12-31T08:34:26.231Z,15.48
2022-12-31T08:37:06.368Z,15.53
2022-12-31T08:39:49.718Z,15.45
2022-12-31T08:42:31.355Z,15.49
2022-12-31T08:45:07.110Z,15.40
2022-12-31T08:47:45.031Z,15.36
2022-12-31T08:50:17.170Z,15.40
2022-12-31T08:52:50.553Z,15.36
2022-12-31T08:55:21.780Z,15.42
2022-12-31T08:58:06.612Z,15.36
2022-12-31T09:00:36.283Z,15.34
2022-12-31T09:03:26.888Z,15.37
2022-12-31T09:06:07.600Z,15.37
2022-12-31T09:08:55.372Z,15.34
2022-12-31T09:11:30.312Z,15.37
2022-12-31T09:14:14.163Z,15.47
2022-12-31T09:16:51.194Z,15.46
2022-12-31T09:19:22.022Z,15.56
2022-12-31T09:21:50.495Z,15.57
2022-12-31T09:24:25.789Z,15.56
2022-12-31T09:27:06.338Z,15.52
2022-12-31T09:29:48.775Z,15.53
2022-12-31T09:32:24.582Z,15.56
2022-12-31T09:34:57.619Z,15.62
2022-12-31T09:37:44.321Z,15.69
2022-12-31T09:40:36.701Z,15.75
2022-12-31T09:43:43.663Z,15.84
2022-12-31T09:46:53.442Z,15.89
2022-12-31T09:49:43.263Z,15.85
2022-12-31T09:52:21.292Z,15.96
2022-12-31T09:54:55.033Z,15.96
2022-12-31T09:57:51.428Z,15.93
2022-12-31T10:00:23.025Z,16.05
2022-12-31T10:03:11.396Z,15.99
2022-12-31T10:05:53.602Z,15.97
2022-12-31T10:08:37.132Z,15.99
2022-12-31T10:11:14.558Z,16.14
2022-12-31T10:13:56.192Z,16.16
2022-12-31T10:16:43.347Z,16.32
2022-12-31T10:19:42.618Z,16.39
2022-12-31T10:22:25.815Z,16.35
2022-12-31T10:25:38.915Z,16.30
2022-12-31T10:28:19.703Z,16.36
2022-12-31T10:31:03.736Z,16.28
2022-12-31T10:33:43.461Z,16.30
2022-12-31T10:36:21.682Z,16.45
2022-12-31T10:39:07.363Z,16.49
2022-12-31T10:42:10.828Z,16.45
2022-12-31T10:45:08.139Z,16.36
2022-12-31T10:48:18.404Z,16.40
2022-12-31T10:51:19.176Z,16.56
2022-12-31T10:54:26.745Z,16.62
2022-12-31T10:57:30.216Z,16.71
2022-12-31T11:00:17.287Z,16.81
2022-12-31T11:03:28.876Z,16.93
2022-12-31T11:06:30.881Z,16.80
2022-12-31T11:09:29.951Z,16.83
2022-12-31T11:12:10.047Z,16.88
2022-12-31T11:14:58.013Z,16.92
2022-12-31T11:17:46.802Z,16.94
2022-12-31T11:20:50.309Z,17.09
2022-12-31T11:23:33.039Z,16.90
2022-12-31T11:26:10.518Z,16.84
2022-12-31T11:28:51.295Z,16.88
2022-12-31T11:31:33.650Z,16.90
2022-12-31T11:34:15.573Z,17.01
2022-12-31T11:36:53.504Z,17.16
2022-12-31T11:39:48.364Z,17.00
2022-12-31T11:42:33.276Z,17.15
2022-12-31T11:45:13.619Z,17.14
2022-12-31T11:48:29.256Z,17.14
2022-12-31T11:50:56.241Z,17.17
2022-12-31T11:53:41.683Z,17.30
2022-12-31T11:56:18.227Z,17.22
2022-12-31T11:58:49.312Z,17.39
2022-12-31T12:01:21.990Z,17.42
2022-12-31T12:03:52.333Z,17.54
2022-12-31T12:06:27.008Z,17.53
2022-12-31T12:08:58.715Z,17.49
2022-12-31T12:11:32.023Z,17.60
2022-12-31T12:14:00.255Z,17.43
2022-12-31T12:16:29.480Z,17.46
2022-12-31T12:19:05.000Z,17.47
2022-12-31T12:21:32.920Z,17.55
2022-12-31T12:24:03.027Z,17.52
2022-12-31T12:26:38.954Z,17.49
2022-12-31T12:29:11.699Z,17.41
2022-12-31T12:31:40.097Z,17.54
2022-12-31T12:34:24.091Z,17.41
2022-12-31T12:36:52.074Z,17.33
2022-12-31T12:39:23.139Z,17.52
2022-12-31T12:42:05.305Z,17.56
2022-12-31T12:44:35.680Z,17.42
2022-12-31T12:47:07.553Z,17.45
2022-12-31T12:49:40.632Z,17.41
2022-12-31T12:52:28.858Z,17.45
2022-12-31T12:55:14.040Z,17.57
2022-12-31T12:57:52.504Z,17.48
2022-12-31T13:00:22.963Z,17.43
2022-12-31T13:03:28.185Z,17.38
2022-12-31T13:06:21.207Z,17.34
2022-12-31T13:09:07.166Z,17.29
2022-12-31T13:11:45.266Z,17.28
2022-12-31T13:14:21.885Z,17.20
2022-12-31T13:17:00.253Z,17.25
2022-12-31T13:19:37.123Z,17.30
2022-12-31T13:22:10.930Z,17.26
2022-12-31T13:24:49.690Z,17.21
2022-12-31T13:27:24.926Z,17.18
2022-12-31T13:29:56.921Z,17.17
2022-12-31T13:32:38.280Z,17.19
2022-12-31T13:35:20.749Z,17.19
2022-12-31T13:37:49.573Z,17.17
2022-12-31T13:40:22.449Z,17.14
2022-12-31T13:42:56.040Z,17.04
2022-12-31T13:45:30.693Z,17.08
2022-12-31T13:48:05.517Z,17.25
2022-12-31T13:50:38.448Z,17.27
2022-12-31T13:53:16.433Z,17.19
2022-12-31T13:55:56.610Z,17.14
2022-12-31T13:58:32.797Z,17.04
2022-12-31T14:01:07.000Z,17.01
2022-12-31T14:03:42.426Z,17.04
2022-12-31T14:06:25.365Z,17.00
2022-12-31T14:08:53.344Z,16.97
2022-12-31T14:11:34.080Z,16.90
2022-12-31T14:14:15.577Z,16.94
2022-12-31T14:16:52.908Z,16.93
2022-12-31T14:19:39.391Z,16.98
2022-12-31T14:22:16.042Z,16.93
2022-12-31T14:24:46.829Z,16.95
2022-12-31T14:27:18.750Z,16.90
2022-12-31T14:29:49.879Z,16.90
2022-12-31T14:32:47.710Z,16.83
2022-12-31T14:35:38.208Z,16.77
2022-12-31T14:38:18.114Z,16.74
2022-12-31T14:40:55.657Z,16.71
2022-12-31T14:43:35.473Z,16.64
2022-12-31T14:46:13.883Z,16.71
2022-12-31T14:48:54.630Z,16.61
2022-12-31T14:51:22.665Z,16.59
2022-12-31T14:53:56.738Z,16.64
2022-12-31T14:56:32.772Z,16.56
2022-12-31T14:59:01.942Z,16.54
2022-12-31T15:01:30.608Z,16.45
2022-12-31T15:03:59.641Z,16.47
2022-12-31T15:06:44.258Z,16.49
2022-12-31T15:09:21.333Z,16.51
2022-12-31T15:12:18.711Z,16.40
2022-12-31T15:15:22.348Z,16.39
2022-12-31T15:18:03.621Z,16.34
2022-12-31T15:20:49.247Z,16.30
2022-12-31T15:23:23.255Z,16.22
2022-12-31T15:25:56.786Z,16.10
2022-12-31T15:28:32.985Z,16.07
2022-12-31T15:31:07.821Z,15.98
2022-12-31T15:33:40.336Z,15.98
2022-12-31T15:36:19.053Z,16.00
2022-12-31T15:38:46.979Z,15.92
2022-12-31T15:41:27.847Z,15.93
2022-12-31T15:43:59.253Z,15.86
2022-12-31T15:46:33.301Z,15.83
2022-12-31T15:49:07.893Z,15.75
2022-12-31T15:51:45.611Z,15.72
2022-12-31T15:54:23.684Z,15.71
2022-12-31T15:56:52.990Z,15.66
2022-12-31T15:59:22.721Z,15.60
2022-12-31T16:01:51.031Z,15.59
2022-12-31T16:04:21.717Z,15.48
2022-12-31T16:06:54.339Z,15.55
2022-12-31T16:09:26.199Z,15.52
2022-12-31T16:11:55.870Z,15.52
2022-12-31T16:14:26.754Z,15.49
2022-12-31T16:16:57.483Z,15.59
2022-12-31T16:19:31.407Z,15.57
2022-12-31T16:22:06.408Z,15.59
2022-12-31T16:24:48.925Z,15.65
2022-12-31T16:27:24.949Z,15.67
2022-12-31T16:30:00.497Z,15.61
2022-12-31T16:32:37.755Z,15.52
2022-12-31T16:35:23.784Z,15.52
2022-12-31T16:38:03.645Z,15.50
2022-12-31T16:40:31.838Z,15.54
2022-12-31T16:42:59.456Z,15.55
2022-12-31T16:45:34.077Z,15.45
2022-12-31T16:48:16.591Z,15.42
2022-12-31T16:50:47.911Z,15.41
2022-12-31T16:53:20.524Z,15.42
2022-12-31T16:55:54.409Z,15.38
2022-12-31T16:58:27.717Z,15.40
2022-12-31T17:00:58.191Z,15.53
2022-12-31T17:03:29.006Z,15.54
2022-12-31T17:06:03.117Z,15.45
2022-12-31T17:08:42.212Z,15.42
2022-12-31T17:11:30.244Z,15.45
2022-12-31T17:14:01.999Z,15.43
2022-12-31T17:16:29.846Z,15.51
2022-12-31T17:18:59.072Z,15.46
2022-12-31T17:21:29.698Z,15.45
2022-12-31T17:24:07.256Z,15.45
2022-12-31T17:26:44.782Z,15.39
2022-12-31T17:29:24.314Z,15.40
2022-12-31T17:32:00.082Z,15.36
2022-12-31T17:34:32.852Z,15.25
2022-12-31T17:37:18.725Z,15.16
2022-12-31T17:39:51.759Z,15.19
2022-12-31T17:42:28.313Z,15.23
2022-12-31T17:44:59.510Z,15.29
2022-12-31T17:47:34.697Z,15.20
2022-12-31T17:50:18.101Z,15.15
2022-12-31T17:52:45.709Z,15.05
2022-12-31T17:55:14.771Z,15.07
2022-12-31T17:57:48.974Z,15.09
2022-12-31T18:00:20.011Z,15.09
2022-12-31T18:02:47.639Z,14.95
2022-12-31T18:05:17.439Z,14.93
2022-12-31T18:07:45.063Z,14.88
2022-12-31T18:12:58.800Z,14.92
2022-12-31T18:15:26.558Z,14.96
2022-12-31T18:17:54.354Z,14.89
2022-12-31T18:20:22.149Z,14.84
2022-12-31T18:22:50.935Z,14.77
2022-12-31T18:25:26.478Z,14.83
2022-12-31T18:27:54.218Z,14.90
2022-12-31T18:30:23.533Z,14.85
2022-12-31T18:32:51.333Z,14.81
2022-12-31T18:35:48.993Z,14.84
2022-12-31T18:38:14.776Z,14.80
2022-12-31T18:40:46.700Z,14.84
2022-12-31T18:43:17.469Z,14.89
2022-12-31T18:45:45.762Z,14.92
2022-12-31T18:48:14.333Z,14.94
2022-12-31T18:50:42.978Z,14.98
2022-12-31T18:53:18.378Z,14.95
2022-12-31T18:55:51.871Z,14.94
2022-12-31T18:58:20.342Z,14.91
2022-12-31T19:00:49.293Z,14.95
2022-12-31T19:03:27.079Z,14.97
2022-12-31T19:05:54.843Z,14.90
2022-12-31T19:08:24.058Z,14.83
2022-12-31T19:10:53.691Z,14.79
2022-12-31T19:13:31.735Z,14.73
2022-12-31T19:15:59.447Z,14.74
2022-12-31T19:18:27.065Z,14.70
2022-12-31T19:20:54.667Z,14.64
2022-12-31T19:23:23.549Z,14.60
2022-12-31T19:25:51.529Z,14.54
2022-12-31T19:28:23.802Z,14.56
2022-12-31T19:30:51.642Z,14.51
2022-12-31T19:33:19.724Z,14.42
2022-12-31T19:35:48.560Z,14.44
2022-12-31T19:38:19.811Z,14.42
2022-12-31T19:40:49.335Z,14.44
2022-12-31T19:43:18.908Z,14.51
2022-12-31T19:45:49.938Z,14.60
2022-12-31T19:48:19.715Z,14.60
2022-12-31T19:50:49.141Z,14.58
2022-12-31T19:53:18.854Z,14.57
2022-12-31T19:55:47.492Z,14.59
2022-12-31T19:58:19.710Z,14.58
2022-12-31T20:01:01.213Z,14.56
2022-12-31T20:03:31.045Z,14.59
2022-12-31T20:06:05.481Z,14.43
2022-12-31T20:08:33.631Z,14.34
2022-12-31T20:11:08.775Z,14.34
2022-12-31T20:13:36.713Z,14.24
2022-12-31T20:16:08.049Z,14.17
2022-12-31T20:18:38.160Z,14.16
2022-12-31T20:21:09.366Z,14.16
2022-12-31T20:23:37.244Z,14.09
2022-12-31T20:26:05.107Z,14.06
2022-12-31T20:28:32.743Z,14.08
2022-12-31T20:31:05.008Z,14.08
2022-12-31T20:33:34.826Z,14.10
2022-12-31T20:36:03.733Z,14.08
2022-12-31T20:38:31.590Z,14.06
2022-12-31T20:41:04.006Z,13.98
2022-12-31T20:43:32.387Z,13.93
2022-12-31T20:46:00.160Z,13.92
2022-12-31T20:48:28.007Z,13.84
2022-12-31T20:50:58.880Z,13.95
2022-12-31T20:53:26.443Z,13.89
2022-12-31T20:55:54.098Z,13.83
2022-12-31T20:58:21.796Z,13.83
2022-12-31T21:00:50.177Z,13.79
2022-12-31T21:04:02.394Z,13.87
2022-12-31T21:06:11.010Z,13.90
2022-12-31T21:08:38.989Z,13.93
2022-12-31T21:11:27.524Z,13.90
2022-12-31T21:13:54.548Z,13.95
2022-12-31T21:16:24.482Z,13.97
2022-12-31T21:18:52.546Z,13.90
2022-12-31T21:21:22.367Z,13.96
2022-12-31T21:23:50.139Z,13.93
2022-12-31T21:26:18.340Z,13.91
2022-12-31T21:28:46.633Z,13.89
2022-12-31T21:31:15.881Z,13.92
2022-12-31T21:33:46.329Z,13.86
2022-12-31T21:36:15.449Z,13.81
2022-12-31T21:38:47.546Z,13.93
2022-12-31T21:41:33.611Z,13.95
2022-12-31T21:44:02.094Z,14.00
2022-12-31T21:46:30.369Z,14.07
2022-12-31T21:48:58.762Z,14.01
2022-12-31T21:51:26.955Z,13.90
2022-12-31T21:53:56.323Z,13.89
2022-12-31T21:56:23.596Z,13.87
2022-12-31T21:59:09.289Z,13.89
2022-12-31T22:01:54.397Z,13.87
2022-12-31T22:04:59.829Z,13.78
2022-12-31T22:07:09.835Z,13.73
2022-12-31T22:09:39.004Z,13.71
2022-12-31T22:12:07.247Z,13.61
2022-12-31T22:14:34.895Z,13.61
2022-12-31T22:17:02.536Z,13.47
2022-12-31T22:19:30.150Z,13.40
2022-12-31T22:21:57.698Z,13.48
2022-12-31T22:24:27.517Z,13.36
2022-12-31T22:26:56.674Z,13.37
2022-12-31T22:29:26.477Z,13.34
2022-12-31T22:32:01.053Z,13.26
2022-12-31T22:34:28.976Z,13.24
2022-12-31T22:36:56.498Z,13.19
2022-12-31T22:39:43.860Z,13.12
2022-12-31T22:42:13.133Z,13.12
2022-12-31T22:44:40.869Z,13.05
2022-12-31T22:47:08.539Z,13.01
2022-12-31T22:49:36.202Z,12.96
2022-12-31T22:52:08.549Z,12.95
2022-12-31T22:54:36.416Z,12.93
2022-12-31T22:57:04.405Z,12.94
2022-12-31T22:59:33.298Z,12.90
2022-12-31T23:02:00.803Z,12.85
2022-12-31T23:04:28.760Z,12.84
2022-12-31T23:06:58.803Z,12.83
2022-12-31T23:09:44.193Z,12.83
2022-12-31T23:12:12.221Z,12.79
2022-12-31T23:14:58.996Z,12.77
2022-12-31T23:17:45.412Z,12.79
2022-12-31T23:20:33.092Z,12.69
2022-12-31T23:23:06.770Z,12.73
2022-12-31T23:25:34.940Z,12.73
2022-12-31T23:28:02.753Z,12.82
2022-12-31T23:30:31.756Z,12.84
2022-12-31T23:32:59.431Z,12.83
2022-12-31T23:35:27.002Z,12.78
2022-12-31T23:37:54.613Z,12.86
2022-12-31T23:40:22.343Z,12.90
2022-12-31T23:42:50.295Z,12.90
2022-12-31T23:45:18.110Z,13.03
2022-12-31T23:47:49.829Z,13.00
2022-12-31T23:50:17.755Z,12.98
2022-12-31T23:52:45.561Z,12.96
2022-12-31T23:55:13.326Z,12.88
2022-12-31T23:57:43.548Z,12.84
